Time;durP1;ratioP1;P1;durP2;ratioP2;P2;SDS_P1;SDS_P2;PMS_P1;PMS_P2;Temp;Humidity;BMP_temperature;BMP_pressure;BME280_temperature;BME280_humidity;BME280_pressure;Samples;Min_cycle;Max_cycle;Signal;HPM_P1;HPM_P2
2020/12/08 00:02:30;;;;;;;32.1;23.9;;;;;;;-0.51;85.84668;98133.8;;;;
2020/12/08 00:12:28;;;;;;;32.5;26.1;;;;;;;-0.5;85.79199;98134.61;;;;
2020/12/08 00:22:25;;;;;;;28.7;20.1;;;;;;;-0.39;85.38574;98148.77;;;;
2020/12/08 00:32:23;;;;;;;43.7;26.5;;;;;;;-0.44;85.84668;98143.39;;;;
2020/12/08 00:42:22;;;;;;;39.3;24.5;;;;;;;-0.51;85.80078;98154.17;;;;
2020/12/08 00:52:18;;;;;;;36.2;24.6;;;;;;;-0.51;86.14258;98152.33;;;;
2020/12/08 01:02:16;;;;;;;31.8;23.7;;;;;;;-0.63;85.80859;98140.28;;;;
2020/12/08 01:12:13;;;;;;;41.1;23.4;;;;;;;-0.58;86.02734;98148.27;;;;
2020/12/08 01:22:11;;;;;;;32.8;22.5;;;;;;;-0.64;86.22461;98136.83;;;;
2020/12/08 01:32:08;;;;;;;28.3;23.9;;;;;;;-0.75;86.74902;98123.71;;;;
2020/12/08 01:42:06;;;;;;;31.1;23.8;;;;;;;-0.67;86.61426;98113.52;;;;
2020/12/08 01:52:04;;;;;;;31;21.5;;;;;;;-0.75;86.91406;98132.45;;;;
2020/12/08 02:02:01;;;;;;;33.1;23.2;;;;;;;-0.75;87.13281;98127.16;;;;
2020/12/08 02:11:59;;;;;;;24.2;19.7;;;;;;;-0.73;86.88477;98138.28;;;;
2020/12/08 02:21:56;;;;;;;21.7;16.7;;;;;;;-0.71;86.84473;98141.5;;;;
2020/12/08 02:31:54;;;;;;;26.2;21.7;;;;;;;-0.87;86.56152;98121.2;;;;
2020/12/08 02:41:52;;;;;;;25.2;20.1;;;;;;;-0.74;86.29102;98133.26;;;;
2020/12/08 02:51:49;;;;;;;28.3;16.7;;;;;;;-0.81;86.56152;98138.73;;;;
2020/12/08 03:01:47;;;;;;;24.8;19.4;;;;;;;-0.8;86.35645;98137.66;;;;
2020/12/08 03:21:43;;;;;;;26.2;18;;;;;;;-0.88;86.70215;98143.41;;;;
2020/12/08 03:31:40;;;;;;;23.8;15.8;;;;;;;-0.92;86.79199;98139.64;;;;
2020/12/08 03:41:37;;;;;;;22.6;17.7;;;;;;;-1.06;87.18066;98141.84;;;;
2020/12/08 03:51:35;;;;;;;26;15.6;;;;;;;-1.07;86.88281;98134.94;;;;
2020/12/08 04:01:33;;;;;;;21;12.8;;;;;;;-1.08;87.07617;98159.77;;;;
2020/12/08 04:11:32;;;;;;;18.7;15.3;;;;;;;-1.11;86.97266;98162.13;;;;
2020/12/08 04:21:31;;;;;;;21.3;15.9;;;;;;;-1.18;86.78223;98170.2;;;;
2020/12/08 04:31:26;;;;;;;22.1;16.4;;;;;;;-1.28;87.1875;98158.67;;;;
2020/12/08 04:41:23;;;;;;;23.2;15.5;;;;;;;-1.3;86.93359;98174.8;;;;
2020/12/08 04:51:21;;;;;;;24.8;14;;;;;;;-1.17;86.45801;98190.32;;;;
2020/12/08 05:01:18;;;;;;;25.8;16;;;;;;;-1.15;86.38281;98168.94;;;;
2020/12/08 05:11:16;;;;;;;26.5;18.1;;;;;;;-1.25;86.76758;98174.85;;;;
2020/12/08 05:21:13;;;;;;;30;19.3;;;;;;;-1.4;86.63867;98176.48;;;;
2020/12/08 05:31:11;;;;;;;22.4;14.5;;;;;;;-1.37;86.04395;98190.02;;;;
2020/12/08 05:41:08;;;;;;;19.6;16.4;;;;;;;-1.46;86.25391;98195.94;;;;
2020/12/08 05:51:06;;;;;;;19.6;13.7;;;;;;;-1.45;86.20117;98216.02;;;;
2020/12/08 06:01:04;;;;;;;19.7;17.8;;;;;;;-1.56;86.32129;98215.05;;;;
2020/12/08 06:11:01;;;;;;;22.5;15.2;;;;;;;-1.6;86.30371;98220.01;;;;
2020/12/08 06:20:59;;;;;;;17.9;13.4;;;;;;;-1.67;86.67285;98229.95;;;;
2020/12/08 06:30:56;;;;;;;22.8;14.1;;;;;;;-1.67;86.63867;98223.86;;;;
2020/12/08 06:40:54;;;;;;;21.9;15.3;;;;;;;-1.67;86.76953;98234.43;;;;
2020/12/08 06:50:52;;;;;;;19.8;13.9;;;;;;;-1.59;86.79688;98255.16;;;;
2020/12/08 07:00:54;;;;;;;22.9;13.9;;;;;;;-1.49;86.4668;98263.27;;;;
2020/12/08 07:10:47;;;;;;;19.8;13.7;;;;;;;-1.44;86.4541;98236.13;;;;
2020/12/08 07:20:46;;;;;;;26.5;16;;;;;;;-1.37;86.41406;98244.71;;;;
2020/12/08 07:30:42;;;;;;;23.2;15.8;;;;;;;-1.32;86.60254;98253.52;;;;
2020/12/08 07:40:39;;;;;;;25.8;19.1;;;;;;;-1.23;86.10449;98256.58;;;;
2020/12/08 07:50:37;;;;;;;24;14.6;;;;;;;-1.17;86.20605;98272.28;;;;
2020/12/08 08:00:34;;;;;;;25.6;16.5;;;;;;;-1.07;86.07129;98276.92;;;;
2020/12/08 08:10:32;;;;;;;32.5;21.7;;;;;;;-0.96;86.17969;98275.25;;;;
2020/12/08 08:20:31;;;;;;;25.9;19.1;;;;;;;-0.78;84.72754;98281.09;;;;
2020/12/08 08:30:27;;;;;;;34.6;22.5;;;;;;;-0.57;85.1084;98279.55;;;;
2020/12/08 08:40:25;;;;;;;29.7;19.1;;;;;;;-0.57;84.34082;98300.72;;;;
2020/12/08 08:50:23;;;;;;;32.1;23.7;;;;;;;-0.46;84.42969;98299.83;;;;
2020/12/08 09:00:20;;;;;;;34.2;19.1;;;;;;;-0.3;83.98828;98314.06;;;;
2020/12/08 09:10:18;;;;;;;23.3;19.7;;;;;;;-0.34;84.14551;98308.45;;;;
2020/12/08 09:20:16;;;;;;;29.1;19.8;;;;;;;-0.25;83.70215;98301.71;;;;
2020/12/08 09:30:13;;;;;;;27.4;18;;;;;;;0;83.4541;98309.19;;;;
2020/12/08 09:40:11;;;;;;;29.5;19.2;;;;;;;0.38;82.41699;98313.61;;;;
2020/12/08 09:50:09;;;;;;;28.3;20.7;;;;;;;0.22;83.05859;98317.92;;;;
2020/12/08 10:00:07;;;;;;;26.9;21.8;;;;;;;0.6;81.42578;98316.2;;;;
2020/12/08 10:10:04;;;;;;;32.2;20.7;;;;;;;0.45;81.88281;98307.04;;;;
2020/12/08 10:20:02;;;;;;;25.3;19.8;;;;;;;0.61;81.87891;98315.97;;;;
2020/12/08 10:30:00;;;;;;;22.3;18.8;;;;;;;0.67;81.6709;98320.27;;;;
2020/12/08 10:39:58;;;;;;;22.5;20.1;;;;;;;0.72;82.04395;98309.72;;;;
2020/12/08 10:49:56;;;;;;;25.1;20.5;;;;;;;0.81;82.09375;98313.52;;;;
2020/12/08 10:59:54;;;;;;;27.4;19.9;;;;;;;0.91;82.29102;98310.95;;;;
2020/12/08 11:09:51;;;;;;;28.5;20.3;;;;;;;0.99;81.82031;98334.38;;;;
2020/12/08 11:19:49;;;;;;;27.5;24.7;;;;;;;0.88;82.35938;98334.52;;;;
2020/12/08 11:29:47;;;;;;;30.7;20.7;;;;;;;1.26;82.04785;98312.3;;;;
2020/12/08 11:39:45;;;;;;;25.2;19;;;;;;;1.31;80.86719;98321.12;;;;
2020/12/08 11:49:43;;;;;;;29.4;20.5;;;;;;;1.46;80.90723;98313.24;;;;
2020/12/08 11:59:41;;;;;;;24.4;20.9;;;;;;;1.37;80.89941;98300.7;;;;
2020/12/08 12:09:39;;;;;;;31;19.9;;;;;;;1.25;80.72266;98303.53;;;;
2020/12/08 12:19:37;;;;;;;32.2;20;;;;;;;1.22;81.09082;98287.31;;;;
2020/12/08 12:29:35;;;;;;;27.9;21.7;;;;;;;1.34;81.12598;98288.75;;;;
2020/12/08 12:39:33;;;;;;;31.1;22.4;;;;;;;1.72;80.12793;98271.72;;;;
2020/12/08 12:49:31;;;;;;;25.1;20.7;;;;;;;1.68;79.50098;98262.66;;;;
2020/12/08 12:59:32;;;;;;;27.9;20.9;;;;;;;1.65;78.85547;98281.77;;;;
2020/12/08 13:09:26;;;;;;;30;19.7;;;;;;;1.44;79.91992;98277.39;;;;
2020/12/08 13:19:24;;;;;;;24.4;19.2;;;;;;;1.32;79.47754;98290.06;;;;
2020/12/08 13:29:22;;;;;;;22.3;18.3;;;;;;;1.32;79.36719;98298.03;;;;
2020/12/08 13:39:20;;;;;;;24.9;20.8;;;;;;;1.14;80.14941;98309.03;;;;
2020/12/08 13:49:18;;;;;;;35.2;22.7;;;;;;;1;80.30078;98322.72;;;;
2020/12/08 13:59:16;;;;;;;38.4;32.4;;;;;;;0.81;81.03711;98324.13;;;;
2020/12/08 14:09:13;;;;;;;34.5;23.9;;;;;;;0.65;81.34766;98327.69;;;;
2020/12/08 14:19:11;;;;;;;34.5;30.3;;;;;;;0.39;82.34375;98320.49;;;;
2020/12/08 14:29:09;;;;;;;27.3;21.8;;;;;;;0.2;82.56934;98329.82;;;;
2020/12/08 14:39:07;;;;;;;25.7;18.8;;;;;;;0.05;82.75977;98353.47;;;;
2020/12/08 14:49:04;;;;;;;19.7;16.9;;;;;;;-0.19;82.92383;98360.83;;;;
2020/12/08 14:59:03;;;;;;;25.3;19.9;;;;;;;-0.42;83.61426;98372.42;;;;
2020/12/08 15:09:00;;;;;;;24.5;19.8;;;;;;;-0.64;84.10938;98382.92;;;;
2020/12/08 15:18:57;;;;;;;27.5;21.9;;;;;;;-0.78;84.7041;98380.83;;;;
2020/12/08 15:28:57;;;;;;;25.3;20.6;;;;;;;-0.94;85.17773;98382.42;;;;
2020/12/08 15:38:53;;;;;;;31.7;19.6;;;;;;;-1.06;85.06543;98389.6;;;;
2020/12/08 15:48:50;;;;;;;29.3;20.9;;;;;;;-1.2;85.32324;98402.31;;;;
2020/12/08 15:58:48;;;;;;;36.7;25.3;;;;;;;-1.35;85.67383;98406.48;;;;
2020/12/08 16:08:46;;;;;;;35.2;21.9;;;;;;;-1.45;85.6123;98417.67;;;;
2020/12/08 16:18:43;;;;;;;33.3;23.2;;;;;;;-1.55;85.87695;98413;;;;
2020/12/08 16:28:41;;;;;;;28.9;22;;;;;;;-1.65;86.20703;98404.87;;;;
2020/12/08 16:38:38;;;;;;;29.5;20.8;;;;;;;-1.69;85.93555;98414.29;;;;
2020/12/08 16:48:36;;;;;;;31.8;26.8;;;;;;;-1.75;85.90137;98430.27;;;;
2020/12/08 16:58:33;;;;;;;35.8;23.1;;;;;;;-1.87;86.12891;98424.99;;;;
2020/12/08 17:08:32;;;;;;;33.5;23;;;;;;;-1.95;86.19824;98427.2;;;;
2020/12/08 17:18:32;;;;;;;34.2;25.4;;;;;;;-2.08;86.95898;98417.66;;;;
2020/12/08 17:28:26;;;;;;;36.7;27.2;;;;;;;-2.13;87.02637;98431.56;;;;
2020/12/08 17:38:24;;;;;;;31.9;24.2;;;;;;;-2.21;87.17383;98433.73;;;;
2020/12/08 17:48:21;;;;;;;32.7;26.7;;;;;;;-2.27;87.25879;98435.46;;;;
2020/12/08 17:58:19;;;;;;;33.4;25.4;;;;;;;-2.34;87.14648;98442.69;;;;
2020/12/08 18:08:16;;;;;;;39;28;;;;;;;-2.48;87.26953;98435.2;;;;
2020/12/08 18:18:14;;;;;;;39.9;30;;;;;;;-2.6;87.00586;98435.17;;;;
2020/12/08 18:28:11;;;;;;;57.1;33.8;;;;;;;-2.68;87.29492;98438.16;;;;
2020/12/08 18:38:08;;;;;;;45.9;33.1;;;;;;;-2.75;87.62891;98427.71;;;;
2020/12/08 18:48:06;;;;;;;69.6;37.2;;;;;;;-2.83;87.99316;98437.77;;;;
2020/12/08 18:58:03;;;;;;;36.2;27.2;;;;;;;-2.87;88.68359;98424.22;;;;
2020/12/08 19:08:01;;;;;;;39.1;30.6;;;;;;;-2.92;88.87012;98426.75;;;;
2020/12/08 19:17:58;;;;;;;40.3;27;;;;;;;-2.92;88.61816;98420.66;;;;
2020/12/08 19:27:55;;;;;;;61.4;41.3;;;;;;;-2.98;88.83496;98417.08;;;;
2020/12/08 19:37:53;;;;;;;38.8;26.4;;;;;;;-3.02;88.79297;98415.14;;;;
2020/12/08 19:47:50;;;;;;;36.8;26.2;;;;;;;-3.09;88.96484;98421.28;;;;
2020/12/08 19:57:48;;;;;;;39.6;26.8;;;;;;;-2.91;89.13184;98430.16;;;;
2020/12/08 20:07:45;;;;;;;42.4;28.2;;;;;;;-2.74;89.24316;98420.61;;;;
2020/12/08 20:17:43;;;;;;;37.8;28.4;;;;;;;-2.5;89.55762;98416.98;;;;
2020/12/08 20:27:40;;;;;;;44.4;30.8;;;;;;;-2.31;89.96582;98433.5;;;;
2020/12/08 20:37:37;;;;;;;57.4;37.6;;;;;;;-2.19;90.72363;98439.6;;;;
2020/12/08 20:47:35;;;;;;;52.1;35.9;;;;;;;-2.16;90.90527;98429.39;;;;
2020/12/08 20:57:32;;;;;;;56.7;36.7;;;;;;;-2.17;90.89258;98443.61;;;;
2020/12/08 21:07:32;;;;;;;48.5;42.9;;;;;;;-2.14;91.16016;98445.79;;;;
2020/12/08 21:17:27;;;;;;;48.2;34.3;;;;;;;-2.12;91.62207;98446.35;;;;
2020/12/08 21:27:24;;;;;;;39.9;32.9;;;;;;;-2.04;91.78125;98438.09;;;;
2020/12/08 21:37:22;;;;;;;42.3;31.6;;;;;;;-1.92;91.48926;98434.66;;;;
2020/12/08 21:47:19;;;;;;;46.1;31.9;;;;;;;-1.88;91.07129;98443.73;;;;
2020/12/08 21:57:17;;;;;;;35;30;;;;;;;-1.87;91.23926;98446.13;;;;
2020/12/08 22:07:14;;;;;;;45.8;30.5;;;;;;;-1.88;90.84277;98443.73;;;;
2020/12/08 22:17:12;;;;;;;45.2;30.6;;;;;;;-1.97;91.41309;98435.34;;;;
2020/12/08 22:27:09;;;;;;;39.6;30.2;;;;;;;-1.93;91.33496;98423.28;;;;
2020/12/08 22:37:07;;;;;;;49.7;32.3;;;;;;;-1.88;91.48633;98430.52;;;;
2020/12/08 22:47:04;;;;;;;45.8;32.2;;;;;;;-1.87;91.24805;98418.91;;;;
2020/12/08 22:57:02;;;;;;;47.4;34.5;;;;;;;-1.87;91.18262;98416.27;;;;
2020/12/08 23:07:00;;;;;;;60.8;34.1;;;;;;;-1.81;91.43652;98396.88;;;;
2020/12/08 23:16:57;;;;;;;48.1;33.7;;;;;;;-1.8;91.08887;98387.89;;;;
2020/12/08 23:26:54;;;;;;;48;32;;;;;;;-1.8;91.39453;98393.17;;;;
2020/12/08 23:36:55;;;;;;;39.9;28.1;;;;;;;-1.88;92.19531;98388.27;;;;
2020/12/08 23:46:51;;;;;;;42.7;26.8;;;;;;;-1.76;91.8623;98397.77;;;;
2020/12/08 23:56:47;;;;;;;32.3;29;;;;;;;-1.75;92.12598;98396.73;;;;
